Time;durP1;ratioP1;P1;durP2;ratioP2;P2;SDS_P1;SDS_P2;PMS_P1;PMS_P2;Temp;Humidity;BMP_temperature;BMP_pressure;BME280_temperature;BME280_humidity;BME280_pressure;Samples;Min_cycle;Max_cycle;Signal;HPM_P1;HPM_P2
2022/09/26 00:00:48;;;;;;;38.33;21.95;;;;;;;12.11;100.00;98132.16;4282336;33;20135;-67
2022/09/26 00:03:26;;;;;;;40.72;21.85;;;;;;;11.98;100.00;98081.50;4282573;33;20045;-67
2022/09/26 00:05:52;;;;;;;38.80;21.87;;;;;;;12.14;100.00;98119.97;4282080;33;20184;-67
2022/09/26 00:08:19;;;;;;;31.05;21.20;;;;;;;11.72;100.00;98072.78;4279041;33;20037;-67
2022/09/26 00:10:45;;;;;;;41.35;21.95;;;;;;;12.21;100.00;98071.88;4308412;33;20062;-67
2022/09/26 00:13:11;;;;;;;39.72;22.05;;;;;;;12.05;100.00;98062.34;4310426;33;20058;-67
2022/09/26 00:15:38;;;;;;;35.90;21.98;;;;;;;11.88;100.00;98106.66;4301314;33;20081;-67
2022/09/26 00:18:04;;;;;;;37.50;22.35;;;;;;;11.77;100.00;98102.41;4309200;33;20089;-71
2022/09/26 00:20:30;;;;;;;38.80;22.50;;;;;;;11.45;100.00;98061.38;4308625;33;20440;-67
2022/09/26 00:22:57;;;;;;;38.50;22.08;;;;;;;12.13;100.00;98096.78;4322609;33;20056;-67
2022/09/26 00:25:23;;;;;;;39.60;23.50;;;;;;;11.94;100.00;98057.00;4327971;33;20066;-67
2022/09/26 00:27:49;;;;;;;35.28;22.13;;;;;;;12.21;100.00;98090.78;4333216;33;20111;-67
2022/09/26 00:30:16;;;;;;;38.65;23.73;;;;;;;12.18;100.00;98056.25;4324518;33;20160;-70
2022/09/26 00:32:43;;;;;;;34.58;22.77;;;;;;;11.73;100.00;98077.09;4334753;33;20048;-67
2022/09/26 00:35:10;;;;;;;39.15;21.60;;;;;;;11.66;100.00;98092.78;4330696;32;20040;-67
2022/09/26 00:37:37;;;;;;;36.90;20.35;;;;;;;11.20;100.00;98051.53;4357501;32;20436;-67
2022/09/26 00:40:04;;;;;;;33.70;18.85;;;;;;;11.69;100.00;98098.41;4369447;32;20031;-65
2022/09/26 00:42:30;;;;;;;42.65;20.98;;;;;;;11.67;100.00;98067.44;4367806;32;20053;-66
2022/09/26 00:44:56;;;;;;;34.92;21.25;;;;;;;11.52;100.00;98039.50;4368915;32;20820;-66
2022/09/26 00:47:28;;;;;;;38.80;22.90;;;;;;;11.53;100.00;98078.81;4370028;32;20397;-66
2022/09/26 00:50:01;;;;;;;39.00;23.10;;;;;;;11.38;100.00;98065.47;4369452;32;20069;-67
2022/09/26 00:52:34;;;;;;;;;;;;;;;11.20;100.00;98011.13;4364934;32;20035;-66
2022/09/26 00:55:04;;;;;;;44.17;22.48;;;;;;;11.78;100.00;98080.56;4396060;32;20342;-66
2022/09/26 00:57:39;;;;;;;43.53;21.73;;;;;;;11.66;100.00;98076.59;4399997;32;20050;-66
2022/09/26 01:00:10;;;;;;;46.55;22.33;;;;;;;11.20;100.00;98038.06;4367929;32;20033;-70
2022/09/26 01:02:37;;;;;;;40.42;23.20;;;;;;;11.51;100.00;98075.63;4369888;32;20065;-67
2022/09/26 01:05:05;;;;;;;38.13;21.95;;;;;;;11.81;100.00;98080.00;4369075;32;20090;-65
2022/09/26 01:07:33;;;;;;;35.20;22.17;;;;;;;11.79;100.00;98040.91;4354741;32;20028;-66
2022/09/26 01:10:03;;;;;;;35.22;21.48;;;;;;;12.43;100.00;98073.28;4353596;32;20417;-69
2022/09/26 01:12:30;;;;;;;43.17;22.90;;;;;;;12.20;100.00;98075.66;4367182;32;20039;-66
2022/09/26 01:14:57;;;;;;;34.47;20.92;;;;;;;11.74;100.00;98079.53;4368879;32;20180;-66
2022/09/26 01:17:25;;;;;;;42.97;23.27;;;;;;;12.14;100.00;98071.41;4363752;32;20108;-65
2022/09/26 01:19:51;;;;;;;39.33;23.92;;;;;;;11.61;100.00;98056.66;4360697;32;20397;-65
2022/09/26 01:22:42;;;;;;;38.35;24.25;;;;;;;11.62;100.00;98071.75;4360671;32;20361;-70
2022/09/26 01:25:27;;;;;;;35.22;23.27;;;;;;;11.54;100.00;98064.28;4365257;32;20064;-65
2022/09/26 01:28:05;;;;;;;39.00;24.58;;;;;;;11.78;100.00;98064.37;4367997;32;20101;-66
2022/09/26 01:30:43;;;;;;;40.85;23.17;;;;;;;11.98;100.00;98059.94;4348874;32;20036;-66
2022/09/26 01:33:16;;;;;;;42.20;25.55;;;;;;;11.73;100.00;98055.53;4353413;32;20029;-66
2022/09/26 01:35:55;;;;;;;42.28;24.92;;;;;;;11.34;100.00;98070.59;4352593;32;20418;-65
2022/09/26 01:38:43;;;;;;;38.40;25.62;;;;;;;11.14;100.00;98016.81;4360279;32;20154;-66
2022/09/26 01:41:25;;;;;;;41.00;23.87;;;;;;;11.66;100.00;98068.50;4365037;32;20071;-66
2022/09/26 01:44:33;;;;;;;47.35;23.42;;;;;;;11.17;100.00;98044.00;4369064;32;20020;-66
2022/09/26 01:47:30;;;;;;;41.40;22.05;;;;;;;11.53;100.00;98067.25;4353624;32;20109;-66
2022/09/26 01:50:11;;;;;;;39.88;22.02;;;;;;;11.59;100.00;98061.53;4366898;32;20027;-69
2022/09/26 01:53:02;;;;;;;43.97;23.80;;;;;;;12.06;100.00;98058.53;4342227;32;20062;-66
2022/09/26 01:55:38;;;;;;;40.17;24.45;;;;;;;11.64;100.00;98058.00;4339985;32;20028;-70
2022/09/26 01:58:12;;;;;;;42.88;23.90;;;;;;;11.63;100.00;98051.81;4349711;32;20070;-66
2022/09/26 02:00:42;;;;;;;37.28;22.92;;;;;;;11.71;100.00;98063.91;4382610;32;20046;-65
2022/09/26 02:03:15;;;;;;;33.95;20.90;;;;;;;11.56;100.00;98013.56;4377976;32;20425;-70
2022/09/26 02:05:52;;;;;;;37.53;21.45;;;;;;;12.52;100.00;98044.59;4398613;32;20832;-66
2022/09/26 02:08:25;;;;;;;32.42;19.87;;;;;;;12.30;100.00;98043.22;4408944;32;20041;-66
2022/09/26 02:11:17;;;;;;;42.83;24.90;;;;;;;12.12;100.00;98033.09;4413230;32;20034;-71
2022/09/26 02:14:02;;;;;;;38.70;23.60;;;;;;;12.00;100.00;98033.50;4414108;32;20537;-66
2022/09/26 02:16:49;;;;;;;34.63;23.15;;;;;;;11.71;100.00;98036.09;4411283;32;20031;-67
2022/09/26 02:19:24;;;;;;;40.97;26.12;;;;;;;12.24;100.00;98038.94;4414036;32;20164;-66
2022/09/26 02:21:51;;;;;;;44.50;26.45;;;;;;;12.17;100.00;98033.06;4413059;32;20458;-67
2022/09/26 02:24:18;;;;;;;47.70;26.30;;;;;;;12.11;100.00;98034.19;4367689;32;20032;-66
2022/09/26 02:26:45;;;;;;;44.50;25.67;;;;;;;12.06;100.00;97991.91;4367030;32;20452;-66
2022/09/26 02:29:12;;;;;;;42.80;23.67;;;;;;;12.34;100.00;98017.22;4371248;32;20042;-66
2022/09/26 02:31:47;;;;;;;39.42;24.60;;;;;;;12.34;100.00;98019.94;4396325;32;20064;-66
2022/09/26 02:34:14;;;;;;;80.90;26.17;;;;;;;12.05;100.00;97971.41;4397583;32;20359;-67
2022/09/26 02:36:43;;;;;;;83.65;25.15;;;;;;;12.19;100.00;98020.09;4396643;32;20047;-66
2022/09/26 02:39:11;;;;;;;106.90;24.20;;;;;;;12.06;100.00;97980.28;4398605;32;20034;-66
2022/09/26 02:41:56;;;;;;;139.62;27.30;;;;;;;12.07;100.00;98017.78;4397735;32;20034;-69
2022/09/26 02:44:47;;;;;;;114.45;24.90;;;;;;;11.82;100.00;98021.47;4382317;32;20055;-66
2022/09/26 02:47:22;;;;;;;109.03;26.35;;;;;;;11.79;100.00;98017.44;4367523;32;20044;-68
2022/09/26 02:50:16;;;;;;;126.12;24.73;;;;;;;11.59;100.00;98007.62;4368273;32;20043;-67
2022/09/26 02:53:00;;;;;;;154.68;27.60;;;;;;;10.85;100.00;97980.59;4367858;32;20358;-67
2022/09/26 02:55:42;;;;;;;157.43;24.40;;;;;;;10.82;100.00;97997.31;4360527;32;20550;-67
2022/09/26 02:58:27;;;;;;;136.80;25.37;;;;;;;11.04;100.00;98015.78;4383420;32;20073;-67
2022/09/26 03:01:14;;;;;;;99.35;24.05;;;;;;;10.97;100.00;98019.87;4382706;32;20034;-67
2022/09/26 03:03:51;;;;;;;164.23;27.98;;;;;;;11.15;100.00;98008.44;4383204;32;20054;-67
2022/09/26 03:06:22;;;;;;;105.40;24.17;;;;;;;11.21;100.00;97999.25;4380885;32;20043;-68
2022/09/26 03:08:50;;;;;;;115.15;24.52;;;;;;;10.87;100.00;97964.97;4383330;32;20043;-68
2022/09/26 03:11:22;;;;;;;124.55;24.75;;;;;;;10.96;100.00;97994.00;4382988;32;20028;-67
2022/09/26 03:13:50;;;;;;;;;;;;;;;10.86;100.00;98006.44;4383704;32;20057;-69
2022/09/26 03:16:19;;;;;;;43.13;23.20;;;;;;;10.69;100.00;98003.28;4375797;32;19935;-67
2022/09/26 03:18:53;;;;;;;59.92;25.23;;;;;;;10.54;100.00;97959.19;4378586;32;20035;-67
2022/09/26 03:21:20;;;;;;;44.25;23.42;;;;;;;10.79;100.00;97999.75;4397363;32;20068;-67
2022/09/26 03:23:47;;;;;;;47.97;24.42;;;;;;;10.47;100.00;97999.06;4388293;32;20043;-71
2022/09/26 03:26:20;;;;;;;59.42;24.95;;;;;;;10.14;100.00;97941.28;4387425;32;20458;-67
2022/09/26 03:28:50;;;;;;;65.87;25.37;;;;;;;10.69;100.00;97989.81;4408138;32;20042;-67
2022/09/26 03:31:20;;;;;;;45.58;24.20;;;;;;;10.46;100.00;97981.28;4412771;32;20356;-67
2022/09/26 03:33:47;;;;;;;47.65;23.62;;;;;;;10.49;100.00;97972.66;4408125;32;20055;-69
2022/09/26 03:36:15;;;;;;;52.50;24.65;;;;;;;9.76;100.00;97882.47;4403740;32;20219;-67
2022/09/26 03:38:41;;;;;;;54.45;25.42;;;;;;;10.40;100.00;97982.38;4398142;32;20927;-67
2022/09/26 03:41:09;;;;;;;48.80;26.05;;;;;;;10.13;100.00;97937.78;4404823;32;20060;-67
2022/09/26 03:43:41;;;;;;;39.90;23.95;;;;;;;10.59;100.00;97981.78;4413069;32;20030;-67
2022/09/26 03:46:14;;;;;;;45.47;25.10;;;;;;;10.35;100.00;97936.66;4411788;32;20030;-70
2022/09/26 03:48:41;;;;;;;46.55;25.05;;;;;;;10.37;100.00;97921.06;4413187;32;20062;-67
2022/09/26 03:51:10;;;;;;;44.97;22.73;;;;;;;10.28;100.00;97930.75;4414478;32;20061;-66
2022/09/26 03:53:40;;;;;;;63.22;22.73;;;;;;;10.45;100.00;97917.81;4424077;32;20030;-68
2022/09/26 03:56:14;;;;;;;46.70;24.98;;;;;;;10.71;100.00;97966.94;4417990;32;20044;-71
2022/09/26 03:58:41;;;;;;;53.45;23.15;;;;;;;9.20;100.00;97810.81;4425770;32;20065;-67
2022/09/26 04:01:13;;;;;;;50.38;22.75;;;;;;;10.16;100.00;97969.53;4410908;32;20111;-67
2022/09/26 04:03:42;;;;;;;51.67;22.52;;;;;;;10.13;100.00;97967.38;4369124;32;20035;-66
2022/09/26 04:06:09;;;;;;;100.40;24.98;;;;;;;10.30;100.00;97960.88;4346546;32;20020;-68
2022/09/26 04:08:39;;;;;;;62.90;24.35;;;;;;;10.50;100.00;97965.41;4341908;32;20067;-67
2022/09/26 04:11:12;;;;;;;52.55;24.30;;;;;;;10.18;100.00;97943.16;4369421;32;20200;-66
2022/09/26 04:13:39;;;;;;;44.28;21.40;;;;;;;10.36;100.00;97955.22;4315370;33;20033;-66
2022/09/26 04:16:08;;;;;;;94.93;27.13;;;;;;;10.13;100.00;97940.47;4295786;33;20059;-71
2022/09/26 04:18:35;;;;;;;41.42;23.02;;;;;;;10.25;100.00;97917.84;4296202;33;20113;-67
2022/09/26 04:21:09;;;;;;;49.63;23.90;;;;;;;10.56;100.00;97936.59;4296449;33;20061;-67
2022/09/26 04:23:39;;;;;;;38.67;22.67;;;;;;;10.42;100.00;97899.50;4296662;33;20041;-67
2022/09/26 04:26:14;;;;;;;41.30;22.80;;;;;;;10.68;100.00;97939.75;4279874;33;20033;-71
2022/09/26 04:28:41;;;;;;;41.22;22.23;;;;;;;10.66;100.00;97941.94;4286932;33;20415;-66
2022/09/26 04:31:09;;;;;;;32.40;20.80;;;;;;;10.73;100.00;97931.66;4290031;33;20240;-67
2022/09/26 04:33:38;;;;;;;40.00;22.08;;;;;;;10.66;100.00;97931.16;4291458;33;20446;-65
2022/09/26 04:36:09;;;;;;;36.47;20.85;;;;;;;10.58;100.00;97885.97;4342831;32;20556;-70
2022/09/26 04:38:36;;;;;;;40.65;21.15;;;;;;;10.86;100.00;97936.41;4333641;33;20036;-65
2022/09/26 04:41:08;;;;;;;41.40;21.83;;;;;;;10.97;100.00;97930.97;4336907;33;20051;-65
2022/09/26 04:43:35;;;;;;;36.25;20.60;;;;;;;10.92;100.00;97939.09;4325648;33;20377;-66
2022/09/26 04:46:15;;;;;;;41.88;22.33;;;;;;;10.94;100.00;97935.03;4338505;33;20418;-67
2022/09/26 04:48:43;;;;;;;39.85;22.02;;;;;;;10.85;100.00;97934.00;4295596;33;20052;-66
2022/09/26 04:51:12;;;;;;;39.33;22.48;;;;;;;10.80;100.00;97932.16;4295293;33;20419;-66
2022/09/26 04:53:40;;;;;;;36.83;21.58;;;;;;;10.69;100.00;97898.28;4306822;33;20055;-66
2022/09/26 04:56:11;;;;;;;39.55;21.87;;;;;;;11.00;100.00;97928.53;4312901;33;20471;-67
2022/09/26 04:58:38;;;;;;;37.10;20.70;;;;;;;10.90;100.00;97928.59;4310383;33;20122;-67
2022/09/26 05:01:16;;;;;;;35.85;20.62;;;;;;;11.06;100.00;97930.09;4309607;33;20461;-67
2022/09/26 05:03:43;;;;;;;36.60;21.30;;;;;;;11.29;100.00;97927.00;4310903;33;20063;-67
2022/09/26 05:06:16;;;;;;;40.45;21.83;;;;;;;10.47;100.00;97939.84;4306662;33;20051;-66
2022/09/26 05:08:45;;;;;;;48.70;22.00;;;;;;;10.52;100.00;97899.44;4308124;33;20070;-67
2022/09/26 05:11:14;;;;;;;40.35;22.65;;;;;;;10.54;100.00;97891.91;4322471;33;20467;-68
2022/09/26 05:13:41;;;;;;;41.30;23.48;;;;;;;10.67;100.00;97948.91;4323403;33;20172;-67
2022/09/26 05:16:09;;;;;;;39.80;23.98;;;;;;;10.80;100.00;97945.63;4287607;33;20048;-69
2022/09/26 05:18:38;;;;;;;42.65;22.48;;;;;;;10.78;100.00;97942.37;4269444;33;20547;-69
2022/09/26 05:21:06;;;;;;;42.45;24.90;;;;;;;11.30;100.00;97891.69;4302353;33;20037;-68
2022/09/26 05:26:22;;;;;;;46.83;25.12;;;;;;;11.36;100.00;97927.47;4301965;33;20036;-70
2022/09/26 05:28:51;;;;;;;46.75;27.00;;;;;;;10.96;100.00;97897.87;4327895;33;20058;-69
2022/09/26 05:31:22;;;;;;;39.38;24.65;;;;;;;11.18;100.00;97927.06;4335405;33;20044;-69
2022/09/26 05:33:50;;;;;;;43.47;25.52;;;;;;;11.22;100.00;97928.13;4337736;33;20032;-70
2022/09/26 05:36:18;;;;;;;47.42;24.10;;;;;;;11.07;100.00;97877.84;4337060;32;20451;-69
2022/09/26 05:38:45;;;;;;;44.78;25.35;;;;;;;11.45;100.00;97926.59;4351783;32;20063;-69
2022/09/26 05:41:13;;;;;;;44.95;24.15;;;;;;;11.91;100.00;97922.66;4349197;32;20490;-73
2022/09/26 05:43:40;;;;;;;53.30;24.33;;;;;;;12.18;100.00;97918.63;4341288;32;20054;-71
2022/09/26 05:46:09;;;;;;;48.38;24.25;;;;;;;11.68;100.00;97870.31;4355602;32;20109;-70
2022/09/26 05:48:38;;;;;;;38.40;24.02;;;;;;;11.61;100.00;97881.41;4361721;32;20031;-73
2022/09/26 05:51:20;;;;;;;40.00;23.67;;;;;;;11.54;100.00;97899.84;4355286;32;20061;-75
2022/09/26 05:53:54;;;;;;;36.55;23.87;;;;;;;11.99;100.00;97923.97;4345848;32;20055;-75
2022/09/26 05:56:50;;;;;;;44.97;23.75;;;;;;;11.78;100.00;97907.16;4347867;32;20051;-75
2022/09/26 05:59:24;;;;;;;;;;;;;;;11.45;100.00;97882.66;4342191;32;20040;-77
2022/09/26 06:02:12;;;;;;;39.83;23.00;;;;;;;12.01;100.00;97926.38;4349008;32;19947;-75
2022/09/26 06:04:42;;;;;;;43.70;25.80;;;;;;;12.24;100.00;97920.19;4333034;33;20073;-79
2022/09/26 06:07:26;;;;;;;43.47;25.88;;;;;;;11.94;100.00;97873.56;4336884;33;20036;-74
2022/09/26 06:10:12;;;;;;;39.33;23.62;;;;;;;11.98;100.00;97880.00;4338227;33;20074;-74
2022/09/26 06:13:14;;;;;;;42.58;24.20;;;;;;;12.42;100.00;97917.84;4337689;33;20141;-74
2022/09/26 06:16:09;;;;;;;;;;;;;;;12.44;100.00;97918.34;4322545;33;20073;-74
2022/09/26 06:22:05;;;;;;;36.05;23.00;;;;;;;12.53;100.00;97919.31;4335438;33;20104;-74
2022/09/26 06:24:38;;;;;;;35.45;21.30;;;;;;;12.43;100.00;97909.44;4317795;33;20068;-79
2022/09/26 06:27:37;;;;;;;38.80;23.45;;;;;;;12.58;100.00;97924.62;4323134;32;20066;-74
2022/09/26 06:30:26;;;;;;;31.85;21.80;;;;;;;12.27;100.00;97873.75;4355841;32;20361;-74
2022/09/26 06:33:42;;;;;;;39.80;22.70;;;;;;;12.18;100.00;97927.53;4358133;32;20069;-73
2022/09/26 06:36:38;;;;;;;35.67;22.70;;;;;;;12.24;100.00;97912.09;4362615;32;20073;-73
2022/09/26 06:39:07;;;;;;;33.55;21.85;;;;;;;11.83;100.00;97882.84;4340241;33;20431;-78
2022/09/26 06:41:43;;;;;;;41.40;23.52;;;;;;;11.66;100.00;97872.47;4335108;33;20850;-74
2022/09/26 06:44:19;;;;;;;46.97;22.13;;;;;;;11.97;100.00;97881.09;4338573;33;20091;-73
2022/09/26 06:46:49;;;;;;;45.30;22.75;;;;;;;12.11;100.00;97883.09;4306550;33;20049;-78
2022/09/26 06:49:33;;;;;;;31.58;20.85;;;;;;;12.50;100.00;97885.59;4307846;33;20045;-74
2022/09/26 06:52:02;;;;;;;35.30;22.00;;;;;;;11.66;100.00;97875.19;4307048;33;20118;-76
2022/09/26 06:54:30;;;;;;;39.13;20.55;;;;;;;12.34;100.00;97930.84;4278995;33;20046;-78
2022/09/26 06:57:08;;;;;;;32.25;20.33;;;;;;;12.16;100.00;97883.84;4294192;33;20095;-73
2022/09/26 06:59:56;;;;;;;41.58;20.75;;;;;;;12.10;100.00;97881.50;4292884;33;20181;-74
2022/09/26 07:02:28;;;;;;;49.60;19.90;;;;;;;11.90;100.00;97877.91;4293523;33;20044;-73
2022/09/26 07:09:33;;;;;;;43.28;19.70;;;;;;;12.11;100.00;97916.28;4249668;33;20034;-74
2022/09/26 07:12:49;;;;;;;;;;;;;;;;;;;;;
2022/09/26 07:16:37;;;;;;;33.35;20.40;;;;;;;12.38;100.00;97881.69;4250491;33;20076;-74
2022/09/26 07:19:46;;;;;;;35.15;21.58;;;;;;;12.97;100.00;97925.47;4254675;33;20056;-77
2022/09/26 07:22:23;;;;;;;44.20;21.00;;;;;;;13.25;100.00;97921.00;4279932;33;20068;-77
2022/09/26 07:24:50;;;;;;;43.80;21.52;;;;;;;12.69;100.00;97845.09;4281508;33;20041;-74
2022/09/26 07:27:18;;;;;;;37.25;20.48;;;;;;;12.84;100.00;97883.78;4250901;33;20041;-74
2022/09/26 07:29:47;;;;;;;41.88;22.00;;;;;;;12.70;100.00;97891.78;4249535;33;20516;-74
2022/09/26 07:32:16;;;;;;;44.90;22.08;;;;;;;13.42;100.00;97921.28;4264701;33;20049;-74
2022/09/26 07:51:48;;;;;;;46.08;22.85;;;;;;;13.43;100.00;97922.91;4168815;34;20039;-75
2022/09/26 07:54:31;;;;;;;35.78;21.17;;;;;;;13.87;100.00;97920.00;4158928;34;20040;-73
2022/09/26 07:57:36;;;;;;;34.30;21.10;;;;;;;14.19;100.00;97916.44;4179057;34;20367;-76
2022/09/26 08:17:25;;;;;;;36.45;21.67;;;;;;;15.48;100.00;97906.31;4155201;34;20136;-74
2022/09/26 08:20:30;;;;;;;37.95;20.33;;;;;;;15.31;100.00;97901.56;4190350;34;20093;-74
2022/09/26 08:24:10;;;;;;;33.22;20.17;;;;;;;15.68;100.00;97893.34;4184263;34;20042;-74
2022/09/26 08:34:51;;;;;;;35.15;19.02;;;;;;;16.13;100.00;97890.53;4238951;33;20444;-74
2022/09/26 08:53:44;;;;;;;30.48;17.45;;;;;;;16.20;100.00;97838.50;4405191;32;20471;-75
2022/09/26 08:57:21;;;;;;;34.88;17.10;;;;;;;15.80;100.00;97834.69;4398286;32;20068;-75
2022/09/26 09:01:03;;;;;;;30.17;17.23;;;;;;;16.51;100.00;97871.00;4379313;32;20069;-75
2022/09/26 09:04:26;;;;;;;36.33;17.15;;;;;;;17.19;100.00;97873.31;4378243;32;20061;-75
2022/09/26 09:08:16;;;;;;;23.73;16.00;;;;;;;16.88;100.00;97868.81;4303707;33;20111;-75
2022/09/26 09:16:34;;;;;;;23.02;16.25;;;;;;;16.78;100.00;97852.81;4237161;33;20030;-75
2022/09/26 09:20:19;;;;;;;;;;;;;;;;;;;;;
2022/09/26 09:24:16;;;;;;;;;;;;;;;;;;;;;
2022/09/26 09:39:26;;;;;;;18.80;13.13;;;;;;;17.32;100.00;97856.00;4192075;33;20480;-79
2022/09/26 10:04:22;;;;;;;23.15;14.87;;;;;;;17.38;100.00;97852.00;4196284;34;20105;-76
2022/09/26 10:07:48;;;;;;;31.62;15.38;;;;;;;17.18;100.00;97849.94;4168922;34;20048;-76
2022/09/26 10:11:17;;;;;;;19.98;14.55;;;;;;;17.21;100.00;97816.66;4148743;34;20133;-76
2022/09/26 10:14:49;;;;;;;22.83;13.45;;;;;;;17.67;100.00;97847.75;4159327;34;20090;-76
2022/09/26 10:21:22;;;;;;;22.65;15.10;;;;;;;17.57;100.00;97856.28;4153880;34;20078;-76
2022/09/26 10:28:09;;;;;;;27.85;14.80;;;;;;;17.67;100.00;97855.91;4100873;34;20068;-76
2022/09/26 10:31:07;;;;;;;24.20;13.95;;;;;;;17.59;100.00;97862.19;4098734;34;20083;-74
2022/09/26 10:33:55;;;;;;;32.47;14.77;;;;;;;18.32;100.00;97853.13;4111858;34;20112;-75
2022/09/26 10:36:45;;;;;;;19.05;13.43;;;;;;;18.50;100.00;97849.13;4125707;34;20492;-77
2022/09/26 10:43:32;;;;;;;27.05;14.52;;;;;;;17.57;100.00;97763.75;4089181;35;20119;-75
2022/09/26 10:50:31;;;;;;;22.62;13.90;;;;;;;18.44;100.00;97839.56;4146226;34;20513;-75
2022/09/26 10:56:30;;;;;;;18.23;12.13;;;;;;;17.90;100.00;97776.75;4224014;33;20079;-75
2022/09/26 10:59:10;;;;;;;20.05;12.77;;;;;;;18.09;100.00;97807.09;4220796;34;20169;-75
2022/09/26 11:02:32;;;;;;;23.33;11.63;;;;;;;18.11;100.00;97807.56;4222644;33;20069;-76
2022/09/26 11:09:20;;;;;;;12.80;9.43;;;;;;;18.05;100.00;97838.84;4308451;33;20457;-75
2022/09/26 11:16:07;;;;;;;12.55;10.02;;;;;;;18.50;100.00;97827.34;4350933;32;20055;-76
2022/09/26 11:19:18;;;;;;;16.35;9.75;;;;;;;18.96;100.00;97826.72;4348252;32;20402;-76
2022/09/26 11:45:28;;;;;;;16.67;9.73;;;;;;;18.43;100.00;97829.81;4321347;33;20098;-75
2022/09/26 11:53:28;;;;;;;17.33;9.05;;;;;;;18.50;100.00;97821.87;4226048;33;20089;-75
2022/09/26 11:57:02;;;;;;;19.27;8.47;;;;;;;18.26;100.00;97816.28;4223110;33;20068;-75
2022/09/26 12:04:05;;;;;;;25.83;8.80;;;;;;;18.52;100.00;97797.84;4170307;34;20035;-76
2022/09/26 12:15:04;;;;;;;13.30;8.02;;;;;;;18.77;100.00;97803.41;4219761;33;20409;-75
2022/09/26 12:28:43;;;;;;;;;;;;;;;;;;;;;
2022/09/26 12:31:46;;;;;;;15.65;9.20;;;;;;;18.39;100.00;97782.53;4170865;34;20043;-75
2022/09/26 12:35:17;;;;;;;14.32;8.43;;;;;;;18.21;100.00;97789.25;4196029;34;20429;-75
2022/09/26 12:39:17;;;;;;;11.25;9.10;;;;;;;19.21;100.00;97779.28;4249636;33;20093;-76
2022/09/26 12:42:37;;;;;;;16.20;9.30;;;;;;;18.97;100.00;97790.09;4222481;34;20088;-76
2022/09/26 12:46:15;;;;;;;13.48;8.43;;;;;;;18.44;100.00;97752.34;4250410;33;20092;-77
2022/09/26 12:49:47;;;;;;;10.80;7.60;;;;;;;18.73;100.00;97775.22;4269256;33;20049;-76
2022/09/26 12:52:54;;;;;;;12.30;8.23;;;;;;;19.06;100.00;97777.19;4257760;33;20075;-75
2022/09/26 12:56:05;;;;;;;11.02;8.00;;;;;;;18.99;100.00;97771.50;4271888;33;20041;-75
2022/09/26 12:58:45;;;;;;;13.15;7.82;;;;;;;19.19;100.00;97764.38;4291436;33;20033;-75
2022/09/26 13:01:28;;;;;;;16.62;6.90;;;;;;;19.29;100.00;97730.41;4327464;33;20070;-74
2022/09/26 13:04:35;;;;;;;18.10;6.03;;;;;;;19.24;100.00;97737.69;4372750;32;20092;-75
2022/09/26 13:07:21;;;;;;;12.10;6.62;;;;;;;19.27;100.00;97749.06;4396857;32;20108;-78
2022/09/26 13:17:45;;;;;;;14.38;7.47;;;;;;;19.31;100.00;97736.34;4335316;33;20091;-75
2022/09/26 13:27:22;;;;;;;10.52;7.05;;;;;;;19.15;100.00;97747.91;4306541;33;20028;-76
2022/09/26 13:30:04;;;;;;;8.25;6.70;;;;;;;19.21;100.00;97664.69;4337063;33;20060;-73
2022/09/26 13:32:48;;;;;;;12.93;6.80;;;;;;;20.11;100.00;97738.50;4335633;32;20119;-75
2022/09/26 13:35:19;;;;;;;11.55;6.15;;;;;;;19.67;100.00;97702.00;4338939;33;20056;-74
2022/09/26 13:38:04;;;;;;;9.60;6.30;;;;;;;20.06;100.00;97736.03;4327002;33;20045;-73
2022/09/26 13:41:04;;;;;;;19.37;8.18;;;;;;;19.92;100.00;97747.28;4339828;33;20123;-73
2022/09/26 13:44:03;;;;;;;17.60;6.72;;;;;;;20.02;100.00;97702.31;4337881;33;20064;-78
2022/09/26 13:47:24;;;;;;;9.32;6.95;;;;;;;19.95;100.00;97745.81;4308545;33;20086;-73
2022/09/26 13:50:29;;;;;;;12.07;7.25;;;;;;;19.19;100.00;97718.81;4376801;32;20080;-73
2022/09/26 13:53:20;;;;;;;15.48;8.38;;;;;;;19.27;100.00;97700.72;4369777;32;20032;-73
2022/09/26 13:56:15;;;;;;;12.70;7.78;;;;;;;19.71;100.00;97735.69;4366364;32;20080;-75
2022/09/26 13:59:57;;;;;;;13.95;7.57;;;;;;;19.60;100.00;97729.87;4372639;32;20040;-74
2022/09/26 14:02:29;;;;;;;18.87;8.57;;;;;;;19.68;100.00;97730.91;4376221;32;20063;-75
2022/09/26 14:05:02;;;;;;;11.48;7.43;;;;;;;18.77;100.00;97660.84;4378369;32;20068;-69
2022/09/26 14:10:40;;;;;;;11.07;8.05;;;;;;;19.24;100.00;97685.84;4383805;32;20056;-69
2022/09/26 14:13:09;;;;;;;16.73;7.07;;;;;;;19.34;100.00;97683.81;4376378;32;20129;-68
2022/09/26 14:15:47;;;;;;;26.30;7.60;;;;;;;18.92;100.00;97722.16;4365297;32;20035;-69
2022/09/26 14:18:36;;;;;;;18.40;8.55;;;;;;;19.03;100.00;97715.13;4361918;32;20027;-69
2022/09/26 14:21:08;;;;;;;16.37;7.45;;;;;;;18.76;100.00;97711.03;4365861;32;20031;-68
2022/09/26 14:23:46;;;;;;;27.00;8.05;;;;;;;18.32;100.00;97716.88;4339864;33;20043;-68
2022/09/26 14:26:20;;;;;;;7.15;4.22;;;;;;;17.19;100.00;97632.03;4339575;33;20173;-70
2022/09/26 14:29:23;;;;;;;6.45;4.12;;;;;;;17.47;100.00;97717.84;4338106;33;20044;-70
2022/09/26 14:32:26;;;;;;;5.72;4.22;;;;;;;16.98;100.00;97689.06;4339404;33;20066;-69
2022/09/26 14:34:56;;;;;;;4.72;3.83;;;;;;;16.67;100.00;97717.25;4325175;33;20049;-70
2022/09/26 14:37:25;;;;;;;5.18;4.68;;;;;;;16.46;100.00;97679.06;4337595;33;20054;-70
2022/09/26 14:40:00;;;;;;;4.53;4.12;;;;;;;16.63;100.00;97683.69;4313197;33;20048;-70
2022/09/26 14:42:49;;;;;;;6.25;4.07;;;;;;;16.47;100.00;97693.47;4310323;33;20059;-71
2022/09/26 14:45:15;;;;;;;5.78;4.57;;;;;;;16.54;100.00;97729.06;4315439;33;20481;-71
2022/09/26 14:47:49;;;;;;;5.30;4.72;;;;;;;15.84;100.00;97739.06;4319653;33;20052;-70
2022/09/26 14:50:19;;;;;;;12.40;5.03;;;;;;;15.96;100.00;97693.13;4331138;33;20028;-71
2022/09/26 14:52:55;;;;;;;9.07;5.37;;;;;;;15.93;100.00;97694.53;4343554;32;20408;-70
2022/09/26 14:55:23;;;;;;;9.48;5.25;;;;;;;16.08;100.00;97700.63;4367324;32;20062;-73
2022/09/26 14:57:50;;;;;;;5.97;5.30;;;;;;;15.72;100.00;97693.53;4386323;32;20051;-71
2022/09/26 15:00:39;;;;;;;6.12;5.30;;;;;;;15.60;100.00;97735.66;4394267;32;20087;-70
2022/09/26 15:03:13;;;;;;;12.05;6.12;;;;;;;16.07;100.00;97715.34;4397013;32;20169;-74
2022/09/26 15:05:41;;;;;;;10.68;5.25;;;;;;;16.50;100.00;97752.59;4396035;32;20178;-69
2022/09/26 15:08:24;;;;;;;11.43;6.22;;;;;;;16.52;100.00;97747.63;4398161;32;20079;-68
2022/09/26 15:10:53;;;;;;;7.12;5.47;;;;;;;16.32;100.00;97711.84;4397634;32;20035;-72
2022/09/26 15:13:25;;;;;;;7.57;6.05;;;;;;;16.13;100.00;97676.03;4428810;32;20084;-69
2022/09/26 15:16:16;;;;;;;13.95;6.62;;;;;;;16.73;100.00;97747.75;4412262;32;20136;-70
2022/09/26 15:18:53;;;;;;;9.07;5.50;;;;;;;16.39;100.00;97721.44;4394161;32;20060;-71
2022/09/26 15:21:42;;;;;;;6.53;4.75;;;;;;;16.17;100.00;97709.59;4386800;32;20440;-70
2022/09/26 15:24:21;;;;;;;7.10;5.78;;;;;;;16.39;100.00;97759.47;4383342;32;20063;-70
2022/09/26 15:26:48;;;;;;;9.63;5.72;;;;;;;16.06;100.00;97711.81;4395249;32;20046;-69
2022/09/26 15:29:16;;;;;;;8.13;5.75;;;;;;;15.87;100.00;97678.75;4396350;32;20043;-68
2022/09/26 15:31:43;;;;;;;11.10;7.32;;;;;;;15.96;100.00;97737.34;4386078;32;20098;-70
2022/09/26 15:34:16;;;;;;;9.52;6.43;;;;;;;15.87;100.00;97744.66;4366271;32;20094;-71
2022/09/26 15:36:47;;;;;;;9.60;6.53;;;;;;;15.75;100.00;97703.75;4332793;33;20052;-70
2022/09/26 15:39:31;;;;;;;10.40;5.70;;;;;;;16.06;100.00;97751.75;4332043;32;20054;-69
2022/09/26 15:44:52;;;;;;;13.05;6.00;;;;;;;16.39;100.00;97754.03;4337401;33;20399;-70
2022/09/26 15:47:28;;;;;;;26.60;11.45;;;;;;;16.50;100.00;97758.03;4338717;33;20071;-69
2022/09/26 15:50:09;;;;;;;18.65;9.98;;;;;;;16.41;100.00;97735.47;4343110;33;20476;-70
2022/09/26 15:52:39;;;;;;;20.70;11.07;;;;;;;16.47;100.00;97748.59;4351966;32;20061;-71